createdAt,value
2023-04-29T00:00:15.912Z,11.82
2023-04-29T00:02:42.972Z,11.84
2023-04-29T00:05:10.548Z,11.83
2023-04-29T00:07:37.519Z,11.83
2023-04-29T00:10:04.612Z,11.92
2023-04-29T00:12:32.507Z,12.01
2023-04-29T00:15:00.825Z,12.09
2023-04-29T00:17:28.224Z,12.06
2023-04-29T00:19:54.956Z,11.99
2023-04-29T00:22:22.780Z,11.93
2023-04-29T00:24:49.390Z,11.92
2023-04-29T00:27:16.917Z,11.93
2023-04-29T00:29:43.838Z,11.88
2023-04-29T00:32:10.679Z,11.83
2023-04-29T00:34:37.538Z,11.79
2023-04-29T00:37:04.195Z,11.76
2023-04-29T00:39:30.877Z,11.75
2023-04-29T00:41:57.694Z,11.74
2023-04-29T00:44:24.733Z,11.74
2023-04-29T00:46:51.435Z,11.72
2023-04-29T00:49:18.197Z,11.76
2023-04-29T00:51:45.355Z,11.76
2023-04-29T00:54:13.033Z,11.72
2023-04-29T00:56:43.294Z,11.65
2023-04-29T00:59:10.299Z,11.58
2023-04-29T01:01:37.634Z,11.56
2023-04-29T01:04:05.717Z,11.57
2023-04-29T01:07:03.129Z,11.51
2023-04-29T01:09:41.348Z,11.47
2023-04-29T01:12:20.544Z,11.45
2023-04-29T01:15:02.626Z,11.46
2023-04-29T01:17:36.242Z,11.43
2023-04-29T01:20:04.817Z,11.45
2023-04-29T01:22:31.698Z,11.40
2023-04-29T01:24:58.345Z,11.38
2023-04-29T01:27:37.281Z,11.32
2023-04-29T01:30:10.016Z,11.30
2023-04-29T01:33:18.226Z,11.31
2023-04-29T01:36:00.802Z,11.29
2023-04-29T01:38:40.224Z,11.28
2023-04-29T01:41:09.762Z,11.31
2023-04-29T01:43:37.938Z,11.26
2023-04-29T01:46:09.801Z,11.25
2023-04-29T01:48:37.475Z,11.22
2023-04-29T01:51:06.507Z,11.14
2023-04-29T01:53:33.621Z,11.14
2023-04-29T01:56:00.418Z,11.11
2023-04-29T01:58:28.206Z,11.06
2023-04-29T02:00:55.664Z,11.09
2023-04-29T02:03:22.431Z,11.11
2023-04-29T02:05:50.573Z,11.10
2023-04-29T02:08:18.195Z,11.10
2023-04-29T02:10:54.064Z,11.08
2023-04-29T02:13:20.997Z,11.15
2023-04-29T02:15:48.136Z,11.22
2023-04-29T02:18:14.808Z,11.27
2023-04-29T02:20:41.830Z,11.25
2023-04-29T02:23:08.608Z,11.22
2023-04-29T02:25:35.233Z,11.23
2023-04-29T02:28:02.173Z,11.23
2023-04-29T02:30:30.355Z,11.21
2023-04-29T02:32:57.341Z,11.13
2023-04-29T02:35:24.060Z,11.07
2023-04-29T02:37:50.725Z,11.02
2023-04-29T02:40:18.534Z,10.97
2023-04-29T02:42:45.177Z,10.90
2023-04-29T02:45:12.136Z,10.82
2023-04-29T02:47:38.814Z,10.83
2023-04-29T02:50:06.260Z,10.81
2023-04-29T02:52:32.934Z,10.82
2023-04-29T02:55:03.174Z,10.80
2023-04-29T02:57:30.601Z,10.78
2023-04-29T02:59:57.487Z,10.76
2023-04-29T03:02:24.301Z,10.75
2023-04-29T03:04:51.207Z,10.74
2023-04-29T03:07:18.166Z,10.71
2023-04-29T03:09:44.909Z,10.68
2023-04-29T03:12:11.738Z,10.66
2023-04-29T03:14:38.652Z,10.66
2023-04-29T03:17:05.381Z,10.68
2023-04-29T03:19:32.199Z,10.70
2023-04-29T03:21:58.899Z,10.69
2023-04-29T03:24:25.587Z,10.76
2023-04-29T03:26:52.194Z,10.83
2023-04-29T03:29:18.829Z,10.86
2023-04-29T03:31:45.788Z,10.85
2023-04-29T03:34:14.512Z,10.82
2023-04-29T03:36:41.130Z,10.86
2023-04-29T03:39:07.797Z,10.87
2023-04-29T03:41:34.426Z,10.83
2023-04-29T03:44:01.198Z,10.83
2023-04-29T03:46:28.239Z,10.85
2023-04-29T03:48:58.051Z,10.89
2023-04-29T03:51:25.420Z,10.92
2023-04-29T03:53:54.713Z,11.01
2023-04-29T03:56:21.334Z,11.03
2023-04-29T03:58:48.060Z,11.01
2023-04-29T04:01:15.466Z,11.04
2023-04-29T04:03:43.527Z,11.10
2023-04-29T04:06:10.324Z,11.12
2023-04-29T04:08:36.986Z,11.13
2023-04-29T04:11:04.662Z,11.14
2023-04-29T04:13:31.514Z,11.18
2023-04-29T04:15:58.437Z,11.23
2023-04-29T04:18:25.087Z,11.25
2023-04-29T04:20:51.697Z,11.27
2023-04-29T04:23:18.374Z,11.32
2023-04-29T04:25:49.173Z,11.35
2023-04-29T04:28:15.923Z,11.35
2023-04-29T04:30:43.060Z,11.36
2023-04-29T04:33:10.765Z,11.37
2023-04-29T04:35:37.558Z,11.40
2023-04-29T04:38:04.352Z,11.40
2023-04-29T04:40:30.962Z,11.42
2023-04-29T04:42:57.649Z,11.45
2023-04-29T04:45:24.380Z,11.46
2023-04-29T04:47:51.096Z,11.45
2023-04-29T04:50:17.851Z,11.46
2023-04-29T04:52:44.489Z,11.47
2023-04-29T04:55:13.845Z,11.48
2023-04-29T04:57:42.839Z,11.48
2023-04-29T05:00:10.164Z,11.48
2023-04-29T05:02:37.096Z,11.50
2023-04-29T05:05:04.032Z,11.52
2023-04-29T05:07:30.709Z,11.54
2023-04-29T05:09:57.869Z,11.52
2023-04-29T05:12:26.758Z,11.54
2023-04-29T05:14:53.781Z,11.57
2023-04-29T05:17:20.413Z,11.59
2023-04-29T05:19:47.051Z,11.60
2023-04-29T05:22:13.764Z,11.65
2023-04-29T05:24:40.397Z,11.69
2023-04-29T05:27:09.331Z,11.76
2023-04-29T05:29:36.020Z,11.80
2023-04-29T05:32:02.844Z,11.84
2023-04-29T05:34:29.545Z,11.86
2023-04-29T05:36:57.424Z,11.91
2023-04-29T05:39:25.021Z,11.95
2023-04-29T05:41:51.696Z,11.98
2023-04-29T05:44:18.442Z,12.01
2023-04-29T05:46:46.282Z,12.04
2023-04-29T05:49:12.950Z,12.09
2023-04-29T05:51:42.458Z,12.11
2023-04-29T05:54:09.100Z,12.14
2023-04-29T05:56:36.011Z,12.15
2023-04-29T05:59:02.654Z,12.15
2023-04-29T06:01:29.350Z,12.15
2023-04-29T06:03:56.734Z,12.15
2023-04-29T06:06:23.731Z,12.15
2023-04-29T06:08:50.507Z,12.15
2023-04-29T06:11:17.186Z,12.15
2023-04-29T06:13:43.909Z,12.15
2023-04-29T06:16:12.048Z,12.15
2023-04-29T06:18:38.835Z,12.14
2023-04-29T06:21:08.331Z,12.14
2023-04-29T06:23:34.991Z,12.15
2023-04-29T06:26:01.875Z,12.15
2023-04-29T06:28:29.914Z,12.17
2023-04-29T06:30:57.017Z,12.19
2023-04-29T06:33:23.906Z,12.17
2023-04-29T06:35:50.570Z,12.20
2023-04-29T06:38:17.230Z,12.20
2023-04-29T06:40:43.846Z,12.24
2023-04-29T06:43:10.781Z,12.28
2023-04-29T06:45:37.588Z,12.33
2023-04-29T06:48:04.624Z,12.38
2023-04-29T06:50:31.672Z,12.42
2023-04-29T06:52:59.575Z,12.49
2023-04-29T06:55:26.404Z,12.57
2023-04-29T06:57:53.125Z,12.63
2023-04-29T07:00:21.190Z,12.67
2023-04-29T07:02:50.708Z,12.74
2023-04-29T07:05:17.607Z,12.79
2023-04-29T07:07:45.310Z,12.85
2023-04-29T07:10:12.113Z,12.89
2023-04-29T07:12:38.934Z,12.92
2023-04-29T07:15:06.217Z,12.99
2023-04-29T07:17:33.005Z,13.06
2023-04-29T07:19:59.639Z,13.14
2023-04-29T07:22:26.505Z,13.23
2023-04-29T07:24:55.016Z,13.28
2023-04-29T07:27:21.810Z,13.34
2023-04-29T07:29:48.563Z,13.40
2023-04-29T07:32:15.944Z,13.53
2023-04-29T07:34:43.600Z,13.62
2023-04-29T07:37:10.246Z,13.69
2023-04-29T07:39:37.301Z,13.67
2023-04-29T07:42:04.652Z,13.62
2023-04-29T07:44:32.331Z,13.61
2023-04-29T07:46:58.945Z,13.60
2023-04-29T07:49:26.320Z,13.59
2023-04-29T07:51:52.981Z,13.54
2023-04-29T07:54:19.788Z,13.52
2023-04-29T07:56:46.731Z,13.50
2023-04-29T07:59:13.554Z,13.47
2023-04-29T08:01:43.550Z,13.48
2023-04-29T08:04:11.167Z,13.50
2023-04-29T08:06:38.294Z,13.53
2023-04-29T08:09:05.189Z,13.56
2023-04-29T08:11:32.034Z,13.60
2023-04-29T08:14:00.229Z,13.67
2023-04-29T08:16:27.173Z,13.74
2023-04-29T08:18:54.410Z,13.84
2023-04-29T08:21:21.309Z,13.98
2023-04-29T08:23:48.029Z,14.14
2023-04-29T08:26:14.721Z,14.24
2023-04-29T08:28:41.541Z,14.39
2023-04-29T08:31:08.346Z,14.51
2023-04-29T08:33:35.405Z,14.59
2023-04-29T08:36:03.870Z,14.66
2023-04-29T08:38:31.181Z,14.71
2023-04-29T08:40:58.529Z,14.74
2023-04-29T08:43:26.523Z,14.78
2023-04-29T08:45:53.724Z,14.77
2023-04-29T08:48:21.377Z,14.80
2023-04-29T08:50:48.039Z,14.86
2023-04-29T08:53:14.913Z,14.93
2023-04-29T08:55:46.326Z,15.01
2023-04-29T08:58:14.984Z,15.03
2023-04-29T09:00:45.137Z,15.02
2023-04-29T09:03:27.698Z,15.04
2023-04-29T09:05:56.344Z,15.05
2023-04-29T09:08:24.376Z,15.07
2023-04-29T09:10:54.382Z,15.09
2023-04-29T09:13:24.430Z,15.17
2023-04-29T09:15:51.242Z,15.22
2023-04-29T09:18:50.551Z,15.33
2023-04-29T09:21:22.849Z,15.40
2023-04-29T09:23:52.488Z,15.45
2023-04-29T09:26:19.722Z,15.50
2023-04-29T09:28:47.869Z,15.58
2023-04-29T09:31:28.084Z,16.00
2023-04-29T09:33:57.191Z,16.53
2023-04-29T09:36:42.421Z,17.02
2023-04-29T09:39:15.405Z,17.21
2023-04-29T09:41:43.636Z,17.33
2023-04-29T09:44:11.297Z,17.49
2023-04-29T09:46:38.702Z,17.60
2023-04-29T09:49:23.993Z,17.94
2023-04-29T09:51:55.125Z,18.43
2023-04-29T09:54:28.509Z,19.12
2023-04-29T09:56:56.511Z,19.44
2023-04-29T09:59:24.442Z,19.42
2023-04-29T10:01:53.803Z,19.24
2023-04-29T10:04:24.404Z,19.24
2023-04-29T10:06:53.114Z,19.16
2023-04-29T10:09:21.066Z,19.09
2023-04-29T10:11:51.142Z,19.08
2023-04-29T10:14:19.992Z,18.92
2023-04-29T10:16:54.627Z,18.74
2023-04-29T10:19:36.014Z,19.26
2023-04-29T10:22:10.176Z,20.13
2023-04-29T10:24:37.985Z,20.79
2023-04-29T10:27:07.719Z,21.50
2023-04-29T10:29:37.201Z,21.32
2023-04-29T10:32:07.735Z,20.68
2023-04-29T10:34:37.254Z,20.17
2023-04-29T10:37:04.752Z,19.78
2023-04-29T10:39:39.912Z,19.46
2023-04-29T10:42:21.219Z,19.22
2023-04-29T10:45:20.129Z,19.08
2023-04-29T10:48:06.248Z,19.09
2023-04-29T10:50:36.691Z,19.20
2023-04-29T10:53:04.816Z,19.00
2023-04-29T10:55:32.209Z,18.66
2023-04-29T10:57:58.881Z,18.42
2023-04-29T11:00:30.668Z,18.19
2023-04-29T11:02:59.735Z,17.95
2023-04-29T11:05:37.347Z,17.67
2023-04-29T11:08:24.068Z,17.47
2023-04-29T11:10:54.445Z,17.36
2023-04-29T11:13:31.797Z,17.42
2023-04-29T11:16:12.091Z,17.59
2023-04-29T11:19:03.842Z,17.66
2023-04-29T11:21:32.635Z,17.70
2023-04-29T11:24:01.196Z,17.77
2023-04-29T11:26:28.012Z,17.81
2023-04-29T11:28:54.715Z,17.84
2023-04-29T11:31:21.614Z,17.86
2023-04-29T11:33:49.316Z,17.86
2023-04-29T11:36:16.018Z,17.85
2023-04-29T11:38:43.351Z,17.77
2023-04-29T11:41:11.837Z,17.68
2023-04-29T11:43:39.961Z,17.59
2023-04-29T11:46:13.837Z,17.56
2023-04-29T11:48:50.294Z,17.52
2023-04-29T11:51:19.144Z,17.45
2023-04-29T11:53:46.319Z,17.45
2023-04-29T11:56:13.294Z,17.44
2023-04-29T11:58:42.052Z,17.45
2023-04-29T12:01:08.797Z,17.48
2023-04-29T12:03:36.775Z,17.56
2023-04-29T12:06:03.943Z,17.74
2023-04-29T12:08:34.820Z,17.84
2023-04-29T12:11:01.844Z,17.84
2023-04-29T12:13:31.621Z,18.03
2023-04-29T12:15:59.119Z,18.19
2023-04-29T12:18:27.768Z,18.24
2023-04-29T12:20:58.455Z,18.27
2023-04-29T12:23:28.459Z,18.33
2023-04-29T12:25:57.189Z,18.29
2023-04-29T12:28:24.425Z,18.36
2023-04-29T12:30:53.984Z,18.47
2023-04-29T12:33:27.255Z,18.41
2023-04-29T12:35:59.431Z,18.27
2023-04-29T12:38:32.566Z,18.28
2023-04-29T12:41:02.131Z,18.51
2023-04-29T12:43:30.183Z,18.55
2023-04-29T12:46:04.548Z,18.71
2023-04-29T12:48:33.374Z,18.74
2023-04-29T12:51:01.433Z,18.81
2023-04-29T12:53:30.378Z,18.87
2023-04-29T12:55:57.745Z,18.97
2023-04-29T12:58:24.562Z,19.02
2023-04-29T13:00:51.655Z,19.08
2023-04-29T13:03:22.024Z,19.04
2023-04-29T13:05:52.641Z,19.01
2023-04-29T13:08:19.840Z,18.98
2023-04-29T13:10:49.671Z,19.10
2023-04-29T13:13:16.407Z,19.20
2023-04-29T13:15:43.057Z,19.28
2023-04-29T13:18:09.746Z,19.45
2023-04-29T13:20:41.608Z,19.48
2023-04-29T13:23:09.687Z,19.59
2023-04-29T13:25:36.535Z,19.63
2023-04-29T13:28:05.582Z,19.67
2023-04-29T13:30:33.288Z,19.74
2023-04-29T13:33:08.466Z,19.78
2023-04-29T13:35:40.344Z,19.85
2023-04-29T13:38:08.504Z,19.91
2023-04-29T13:40:39.249Z,19.92
2023-04-29T13:43:09.800Z,19.99
2023-04-29T13:45:41.154Z,20.09
2023-04-29T13:48:22.871Z,20.06
2023-04-29T13:51:34.324Z,20.15
2023-04-29T13:54:41.165Z,19.96
2023-04-29T13:57:26.667Z,19.91
2023-04-29T14:04:19.813Z,20.45
2023-04-29T14:06:46.491Z,20.59
2023-04-29T14:09:13.259Z,20.85
2023-04-29T14:11:40.010Z,21.05
2023-04-29T14:14:06.644Z,21.29
2023-04-29T14:16:33.408Z,21.50
2023-04-29T14:19:01.978Z,21.65
2023-04-29T14:21:32.005Z,21.75
2023-04-29T14:23:59.576Z,21.80
2023-04-29T14:26:28.671Z,21.82
2023-04-29T14:28:59.739Z,21.83
2023-04-29T14:31:28.454Z,21.75
2023-04-29T14:33:57.429Z,21.54
2023-04-29T14:36:25.074Z,21.54
2023-04-29T14:38:51.870Z,21.59
2023-04-29T14:41:18.667Z,21.71
2023-04-29T14:43:45.978Z,21.73
2023-04-29T14:46:12.905Z,21.76
2023-04-29T14:48:39.721Z,21.76
2023-04-29T14:51:06.579Z,21.71
2023-04-29T14:53:33.932Z,21.50
2023-04-29T14:56:01.145Z,20.99
2023-04-29T14:58:28.222Z,20.56
2023-04-29T15:00:54.979Z,20.25
2023-04-29T15:03:23.239Z,20.08
2023-04-29T15:05:51.501Z,19.91
2023-04-29T15:08:19.192Z,19.67
2023-04-29T15:10:47.750Z,19.43
2023-04-29T15:13:14.786Z,19.20
2023-04-29T15:15:41.937Z,18.97
2023-04-29T15:18:09.287Z,18.79
2023-04-29T15:20:37.049Z,18.64
2023-04-29T15:23:05.528Z,18.61
2023-04-29T15:25:34.718Z,18.52
2023-04-29T15:28:04.898Z,18.45
2023-04-29T15:30:32.339Z,18.39
2023-04-29T15:32:59.838Z,18.42
2023-04-29T15:35:26.771Z,18.46
2023-04-29T15:37:53.782Z,18.60
2023-04-29T15:40:20.420Z,19.11
2023-04-29T15:42:47.165Z,19.61
2023-04-29T15:45:14.036Z,19.83
2023-04-29T15:47:40.886Z,19.81
2023-04-29T15:50:09.636Z,19.81
2023-04-29T15:52:36.956Z,19.85
2023-04-29T15:55:07.240Z,20.14
2023-04-29T15:57:34.885Z,20.47
2023-04-29T16:00:01.766Z,20.78
2023-04-29T16:02:28.469Z,20.99
2023-04-29T16:04:55.163Z,21.23
2023-04-29T16:07:21.988Z,21.38
2023-04-29T16:09:48.622Z,21.44
2023-04-29T16:12:15.393Z,21.35
2023-04-29T16:14:41.952Z,21.20
2023-04-29T16:17:08.642Z,21.14
2023-04-29T16:19:37.081Z,21.35
2023-04-29T16:22:04.707Z,21.61
2023-04-29T16:24:31.525Z,21.72
2023-04-29T16:26:59.124Z,21.65
2023-04-29T16:29:26.128Z,21.37
2023-04-29T16:31:53.006Z,21.05
2023-04-29T16:34:20.309Z,21.11
2023-04-29T16:36:47.032Z,21.32
2023-04-29T16:39:14.118Z,21.47
2023-04-29T16:41:41.241Z,21.43
2023-04-29T16:44:08.577Z,21.14
2023-04-29T16:46:35.407Z,20.74
2023-04-29T16:49:02.193Z,20.20
2023-04-29T16:51:29.288Z,19.72
2023-04-29T16:53:56.091Z,19.25
2023-04-29T16:56:23.182Z,18.94
2023-04-29T16:58:50.032Z,18.74
2023-04-29T17:01:19.650Z,18.63
2023-04-29T17:03:50.591Z,18.59
2023-04-29T17:06:17.733Z,18.53
2023-04-29T17:08:45.596Z,18.44
2023-04-29T17:11:12.415Z,18.31
2023-04-29T17:13:39.101Z,18.24
2023-04-29T17:16:07.070Z,18.22
2023-04-29T17:18:34.295Z,18.17
2023-04-29T17:21:01.148Z,18.14
2023-04-29T17:23:27.837Z,18.06
2023-04-29T17:25:55.493Z,18.01
2023-04-29T17:28:22.359Z,17.99
2023-04-29T17:30:49.586Z,17.90
2023-04-29T17:33:17.540Z,17.74
2023-04-29T17:35:46.283Z,17.45
2023-04-29T17:38:13.158Z,17.20
2023-04-29T17:40:39.798Z,17.07
2023-04-29T17:43:06.496Z,16.90
2023-04-29T17:45:33.368Z,16.79
2023-04-29T17:48:00.270Z,16.69
2023-04-29T17:50:27.022Z,16.62
2023-04-29T17:52:57.189Z,16.62
2023-04-29T17:55:23.847Z,16.66
2023-04-29T17:57:50.498Z,16.70
2023-04-29T18:00:18.254Z,16.74
2023-04-29T18:02:44.965Z,16.82
2023-04-29T18:05:11.758Z,16.88
2023-04-29T18:07:38.396Z,16.91
2023-04-29T18:10:06.078Z,16.93
2023-04-29T18:12:33.172Z,16.95
2023-04-29T18:15:01.781Z,16.96
2023-04-29T18:17:28.503Z,16.96
2023-04-29T18:19:56.452Z,17.05
2023-04-29T18:22:23.407Z,17.13
2023-04-29T18:24:50.085Z,17.13
2023-04-29T18:27:17.836Z,17.12
2023-04-29T18:29:45.874Z,17.05
2023-04-29T18:32:12.655Z,16.99
2023-04-29T18:34:39.416Z,16.98
2023-04-29T18:37:06.056Z,16.96
2023-04-29T18:39:32.770Z,16.87
2023-04-29T18:41:59.429Z,16.75
2023-04-29T18:44:26.315Z,16.62
2023-04-29T18:46:54.614Z,16.56
2023-04-29T18:49:21.252Z,16.54
2023-04-29T18:51:47.926Z,16.53
2023-04-29T18:54:16.730Z,16.45
2023-04-29T18:56:46.665Z,16.43
2023-04-29T18:59:19.010Z,16.45
2023-04-29T19:01:47.337Z,16.43
2023-04-29T19:04:14.522Z,16.44
2023-04-29T19:06:42.369Z,16.38
2023-04-29T19:09:09.370Z,16.34
2023-04-29T19:11:36.289Z,16.25
2023-04-29T19:14:05.980Z,16.20
2023-04-29T19:16:39.822Z,16.15
2023-04-29T19:19:06.840Z,16.12
2023-04-29T19:21:33.753Z,16.13
2023-04-29T19:24:00.642Z,16.07
2023-04-29T19:26:27.350Z,16.03
2023-04-29T19:28:54.273Z,15.96
2023-04-29T19:31:21.673Z,15.98
2023-04-29T19:33:48.547Z,15.90
2023-04-29T19:36:15.245Z,15.80
2023-04-29T19:38:41.926Z,15.69
2023-04-29T19:41:08.816Z,15.64
2023-04-29T19:43:36.149Z,15.61
2023-04-29T19:46:02.957Z,15.53
2023-04-29T19:48:29.649Z,15.50
2023-04-29T19:50:59.579Z,15.43
2023-04-29T19:53:27.094Z,15.35
2023-04-29T19:55:54.268Z,15.32
2023-04-29T19:58:20.984Z,15.24
2023-04-29T20:00:48.198Z,15.20
2023-04-29T20:03:15.178Z,15.15
2023-04-29T20:05:42.042Z,15.12
2023-04-29T20:08:08.873Z,15.11
2023-04-29T20:10:35.518Z,15.15
2023-04-29T20:13:02.154Z,15.11
2023-04-29T20:15:28.815Z,15.04
2023-04-29T20:17:56.077Z,15.04
2023-04-29T20:20:24.291Z,15.01
2023-04-29T20:22:51.090Z,15.02
2023-04-29T20:25:18.352Z,15.12
2023-04-29T20:27:45.082Z,15.13
2023-04-29T20:30:11.955Z,15.06
2023-04-29T20:32:38.858Z,15.03
2023-04-29T20:35:05.890Z,15.01
2023-04-29T20:37:32.516Z,15.03
2023-04-29T20:39:59.769Z,15.07
2023-04-29T20:42:27.032Z,15.11
2023-04-29T20:44:53.634Z,15.13
2023-04-29T20:47:20.681Z,15.17
2023-04-29T20:49:47.310Z,15.14
2023-04-29T20:52:13.992Z,15.10
2023-04-29T20:54:40.728Z,15.09
2023-04-29T20:57:07.328Z,15.07
2023-04-29T20:59:34.522Z,15.05
2023-04-29T21:02:01.491Z,15.00
2023-04-29T21:04:28.362Z,14.98
2023-04-29T21:06:55.158Z,14.99
2023-04-29T21:09:22.161Z,15.02
2023-04-29T21:11:48.809Z,15.01
2023-04-29T21:14:15.521Z,15.01
2023-04-29T21:16:42.687Z,15.04
2023-04-29T21:19:09.505Z,15.03
2023-04-29T21:21:36.118Z,14.99
2023-04-29T21:24:03.083Z,14.92
2023-04-29T21:26:29.808Z,14.87
2023-04-29T21:28:56.449Z,14.81
2023-04-29T21:31:23.144Z,14.82
2023-04-29T21:33:49.855Z,14.78
2023-04-29T21:36:18.077Z,14.68
2023-04-29T21:38:45.090Z,14.61
2023-04-29T21:41:26.626Z,14.59
2023-04-29T21:43:59.413Z,14.61
2023-04-29T21:46:29.152Z,14.56
2023-04-29T21:48:57.841Z,14.53
2023-04-29T21:51:24.946Z,14.54
2023-04-29T21:53:51.612Z,14.51
2023-04-29T21:56:18.335Z,14.48
2023-04-29T21:58:45.425Z,14.44
2023-04-29T22:01:39.834Z,14.43
2023-04-29T22:04:06.903Z,14.37
2023-04-29T22:06:36.197Z,14.34
2023-04-29T22:09:03.283Z,14.31
2023-04-29T22:11:30.296Z,14.30
2023-04-29T22:13:57.166Z,14.30
2023-04-29T22:16:24.027Z,14.31
2023-04-29T22:18:51.348Z,14.30
2023-04-29T22:21:18.983Z,14.28
2023-04-29T22:23:45.736Z,14.28
2023-04-29T22:26:12.390Z,14.22
2023-04-29T22:28:39.274Z,14.21
2023-04-29T22:31:06.600Z,14.22
2023-04-29T22:33:34.646Z,14.21
2023-04-29T22:36:01.404Z,14.19
2023-04-29T22:38:29.417Z,14.23
2023-04-29T22:40:56.109Z,14.23
2023-04-29T22:43:22.729Z,14.24
2023-04-29T22:45:56.955Z,14.23
2023-04-29T22:48:26.645Z,14.18
2023-04-29T22:50:56.762Z,14.18
2023-04-29T22:53:24.967Z,14.16
2023-04-29T22:55:55.907Z,14.17
2023-04-29T22:58:25.356Z,14.18
2023-04-29T23:00:54.909Z,14.17
2023-04-29T23:03:21.683Z,14.09
2023-04-29T23:05:48.861Z,14.05
2023-04-29T23:08:15.736Z,14.03
2023-04-29T23:10:48.530Z,14.01
2023-04-29T23:13:15.858Z,14.00
2023-04-29T23:15:42.763Z,14.02
2023-04-29T23:18:09.551Z,14.02
2023-04-29T23:20:36.163Z,14.02
2023-04-29T23:23:02.951Z,14.04
2023-04-29T23:25:29.573Z,14.02
2023-04-29T23:27:56.268Z,14.01
2023-04-29T23:30:22.924Z,14.00
2023-04-29T23:32:49.681Z,13.96
2023-04-29T23:35:16.451Z,13.95
2023-04-29T23:37:43.082Z,13.94
2023-04-29T23:40:10.133Z,13.92
2023-04-29T23:42:39.788Z,13.93
2023-04-29T23:45:07.421Z,13.92
2023-04-29T23:47:36.595Z,13.91
2023-04-29T23:50:04.147Z,13.89
2023-04-29T23:52:30.870Z,13.89
2023-04-29T23:54:58.364Z,13.85
2023-04-29T23:57:24.975Z,13.84
2023-04-29T23:59:53.035Z,13.78
